Time;durP1;ratioP1;P1;durP2;ratioP2;P2;SDS_P1;SDS_P2;PMS_P1;PMS_P2;Temp;Humidity;BMP_temperature;BMP_pressure;BME280_temperature;BME280_humidity;BME280_pressure;Samples;Min_cycle;Max_cycle;Signal;HPM_P1;HPM_P2
2023/02/07 00:00:38;;;;;;;34.97;22.92;;;;;;;-2.62;100.00;102782.41;5100917;28;20325;-70
2023/02/07 00:03:05;;;;;;;38.75;23.25;;;;;;;-2.63;100.00;102793.78;5102006;28;20209;-70
2023/02/07 00:05:35;;;;;;;36.65;22.17;;;;;;;-2.51;100.00;102796.44;5087334;28;20265;-70
2023/02/07 00:08:02;;;;;;;33.78;20.40;;;;;;;-2.55;100.00;102787.69;5083164;28;20206;-69
2023/02/07 00:10:29;;;;;;;49.33;26.00;;;;;;;-2.69;100.00;102774.56;5101340;28;20302;-70
2023/02/07 00:12:55;;;;;;;38.35;22.65;;;;;;;-2.79;100.00;102761.41;5089965;28;20448;-69
2023/02/07 00:15:22;;;;;;;35.70;21.23;;;;;;;-2.72;100.00;102764.06;5079998;28;20209;-70
2023/02/07 00:17:48;;;;;;;34.15;23.48;;;;;;;-2.72;100.00;102771.91;5081397;28;20639;-69
2023/02/07 00:20:16;;;;;;;38.17;22.50;;;;;;;-2.77;100.00;102768.41;5080544;28;20225;-71
2023/02/07 00:22:54;;;;;;;41.47;24.27;;;;;;;-2.89;100.00;102755.25;5083484;28;20210;-71
2023/02/07 00:25:21;;;;;;;40.13;23.63;;;;;;;-2.88;100.00;102754.41;5084627;28;20683;-71
2023/02/07 00:27:48;;;;;;;35.67;21.77;;;;;;;-2.88;100.00;102743.94;5080516;28;20278;-71
2023/02/07 00:30:15;;;;;;;42.47;23.35;;;;;;;-2.97;100.00;102752.59;5082275;28;20206;-71
2023/02/07 00:32:44;;;;;;;41.00;23.77;;;;;;;-2.98;100.00;102749.97;5081032;28;20206;-71
2023/02/07 00:35:11;;;;;;;40.00;21.30;;;;;;;-3.09;100.00;102729.88;5100507;28;20275;-71
2023/02/07 00:37:37;;;;;;;46.70;24.33;;;;;;;-3.06;100.00;102716.78;5101272;28;20197;-70
2023/02/07 00:40:06;;;;;;;39.15;23.73;;;;;;;-3.13;100.00;102724.59;5101277;28;20201;-70
2023/02/07 00:42:33;;;;;;;33.03;22.42;;;;;;;-3.15;100.00;102714.13;5067560;28;20242;-70
2023/02/07 00:44:59;;;;;;;37.42;23.15;;;;;;;-3.01;100.00;102711.56;5080133;28;20213;-70
2023/02/07 00:47:26;;;;;;;39.15;22.65;;;;;;;-3.04;100.00;102711.53;5080360;28;20655;-70
2023/02/07 00:49:53;;;;;;;42.28;21.85;;;;;;;-2.97;100.00;102696.75;5081277;28;20226;-69
2023/02/07 00:52:19;;;;;;;36.60;23.08;;;;;;;-2.97;100.00;102701.97;5080246;28;20238;-69
2023/02/07 00:54:46;;;;;;;43.33;23.45;;;;;;;-2.95;100.00;102698.53;5080086;28;20198;-69
2023/02/07 00:57:14;;;;;;;38.72;22.15;;;;;;;-3.00;100.00;102715.06;5079967;28;20742;-69
2023/02/07 00:59:40;;;;;;;39.50;22.67;;;;;;;-3.12;100.00;102708.03;5081776;28;20227;-70
2023/02/07 01:02:07;;;;;;;30.65;20.52;;;;;;;-3.14;100.00;102702.81;5083678;28;20225;-70
2023/02/07 01:04:34;;;;;;;41.50;20.77;;;;;;;-3.07;100.00;102701.09;5084558;28;20252;-70
2023/02/07 01:07:00;;;;;;;33.78;20.80;;;;;;;-3.01;100.00;102695.00;5084133;28;20288;-70
2023/02/07 01:09:27;;;;;;;38.53;20.80;;;;;;;-3.10;100.00;102695.84;5084733;28;20279;-70
2023/02/07 01:11:54;;;;;;;31.73;22.13;;;;;;;-3.07;100.00;102704.56;5083896;28;20288;-70
2023/02/07 01:14:22;;;;;;;35.05;20.00;;;;;;;-3.10;100.00;102712.41;5083895;28;20232;-70
2023/02/07 01:16:48;;;;;;;27.77;20.23;;;;;;;-3.08;100.00;102710.66;5083995;28;20249;-70
2023/02/07 01:19:15;;;;;;;31.52;20.77;;;;;;;-3.16;100.00;102715.00;5085000;28;20190;-70
2023/02/07 01:21:42;;;;;;;31.90;21.13;;;;;;;-3.13;100.00;102717.63;5083752;28;20245;-71
2023/02/07 01:24:09;;;;;;;36.40;21.60;;;;;;;-2.99;100.00;102717.69;5083896;28;20284;-71
2023/02/07 01:26:37;;;;;;;30.55;19.20;;;;;;;-3.19;100.00;102720.22;5083727;28;20249;-71
2023/02/07 01:29:04;;;;;;;30.58;20.33;;;;;;;-3.18;100.00;102721.06;5083058;28;20218;-71
2023/02/07 01:31:33;;;;;;;34.15;20.05;;;;;;;-3.14;100.00;102720.22;5083829;28;20221;-71
2023/02/07 01:34:00;;;;;;;29.38;20.30;;;;;;;-3.16;100.00;102727.19;5082939;28;20210;-71
2023/02/07 01:36:28;;;;;;;35.13;20.45;;;;;;;-3.22;100.00;102728.91;5083005;28;20245;-71
2023/02/07 01:38:55;;;;;;;34.40;21.90;;;;;;;-3.28;100.00;102736.75;5084738;28;20195;-70
2023/02/07 01:41:23;;;;;;;31.20;20.20;;;;;;;-3.33;100.00;102741.06;5083472;28;20227;-69
2023/02/07 01:43:55;;;;;;;35.22;21.85;;;;;;;-3.37;100.00;102735.78;5096437;28;20229;-69
2023/02/07 01:46:22;;;;;;;36.45;20.17;;;;;;;-3.34;100.00;102735.81;5103435;28;20233;-69
2023/02/07 01:48:51;;;;;;;29.20;18.83;;;;;;;-3.34;100.00;102725.34;5104116;28;20213;-69
2023/02/07 01:51:18;;;;;;;31.42;20.30;;;;;;;-3.35;100.00;102720.97;5103554;28;20294;-71
2023/02/07 01:53:45;;;;;;;35.95;20.23;;;;;;;-3.38;100.00;102705.28;5103737;28;20205;-70
2023/02/07 01:56:13;;;;;;;29.92;19.55;;;;;;;-3.43;100.00;102706.13;5103315;28;20233;-70
2023/02/07 01:58:40;;;;;;;32.72;20.75;;;;;;;-3.35;100.00;102718.38;5102967;28;20239;-70
2023/02/07 02:01:10;;;;;;;30.70;19.95;;;;;;;-3.31;100.00;102712.31;5103249;28;20225;-70
2023/02/07 02:03:40;;;;;;;34.40;20.25;;;;;;;-3.36;100.00;102720.13;5103473;28;20216;-70
2023/02/07 02:06:10;;;;;;;29.48;19.83;;;;;;;-3.42;100.00;102712.22;5102690;28;20233;-70
2023/02/07 02:08:36;;;;;;;29.83;19.25;;;;;;;-3.41;100.00;102711.34;5103699;28;20209;-70
2023/02/07 02:11:15;;;;;;;28.37;19.40;;;;;;;-3.44;100.00;102708.72;5103275;28;20312;-70
2023/02/07 02:13:46;;;;;;;29.10;18.67;;;;;;;-3.47;100.00;102709.59;5086599;28;20497;-69
2023/02/07 02:16:23;;;;;;;29.08;19.05;;;;;;;-3.34;100.00;102723.59;5102719;28;20229;-69
2023/02/07 02:19:27;;;;;;;30.10;19.02;;;;;;;-3.35;100.00;102720.97;5103835;28;20193;-69
2023/02/07 02:22:29;;;;;;;39.47;20.85;;;;;;;-3.39;100.00;102724.44;5084027;28;20252;-69
2023/02/07 02:25:13;;;;;;;26.02;18.70;;;;;;;-3.37;100.00;102715.72;5072903;28;20245;-69
2023/02/07 02:27:53;;;;;;;29.95;19.70;;;;;;;-3.38;100.00;102718.38;5101242;28;20225;-69
2023/02/07 02:30:36;;;;;;;28.75;18.00;;;;;;;-3.39;100.00;102716.59;5101802;28;20243;-70
2023/02/07 02:33:14;;;;;;;29.98;18.80;;;;;;;-3.52;100.00;102708.69;5102162;28;20216;-70
2023/02/07 02:35:46;;;;;;;29.73;17.85;;;;;;;-3.51;100.00;102712.16;5102845;28;20241;-70
2023/02/07 02:38:17;;;;;;;28.55;19.73;;;;;;;-3.59;100.00;102714.75;5103245;28;20651;-69
2023/02/07 02:40:50;;;;;;;36.97;20.83;;;;;;;-3.47;100.00;102712.22;5102735;28;20263;-70
2023/02/07 02:43:22;;;;;;;35.20;20.02;;;;;;;-3.57;100.00;102713.00;5102274;28;20248;-69
2023/02/07 02:45:58;;;;;;;35.28;19.63;;;;;;;-3.64;100.00;102711.22;5101671;28;20236;-69
2023/02/07 02:48:27;;;;;;;34.22;19.30;;;;;;;-3.70;100.00;102709.41;5088357;28;20222;-69
2023/02/07 02:50:55;;;;;;;29.10;20.10;;;;;;;-3.70;100.00;102698.09;5082520;28;20218;-70
2023/02/07 02:53:21;;;;;;;35.92;19.75;;;;;;;-3.64;100.00;102699.00;5082301;28;20293;-70
2023/02/07 02:56:01;;;;;;;36.72;21.02;;;;;;;-3.62;100.00;102704.25;5102343;28;20237;-70
2023/02/07 02:58:32;;;;;;;26.48;18.90;;;;;;;-3.66;100.00;102710.34;5101368;28;20233;-71
2023/02/07 03:01:09;;;;;;;31.52;21.42;;;;;;;-3.66;100.00;102705.09;5095681;28;20263;-71
2023/02/07 03:04:09;;;;;;;33.70;19.83;;;;;;;-3.63;100.00;102700.78;5062373;28;20614;-69
2023/02/07 03:06:51;;;;;;;32.00;19.05;;;;;;;-3.55;100.00;102705.19;5062249;28;20234;-69
2023/02/07 03:09:25;;;;;;;29.55;18.40;;;;;;;-3.54;100.00;102709.53;5075776;28;20226;-70
2023/02/07 03:11:57;;;;;;;29.50;17.73;;;;;;;-3.56;100.00;102713.88;5081912;28;20225;-70
2023/02/07 03:14:31;;;;;;;29.77;19.27;;;;;;;-3.66;100.00;102724.28;5081795;28;20242;-70
2023/02/07 03:17:06;;;;;;;31.85;19.20;;;;;;;-3.74;100.00;102714.63;5061907;28;20317;-70
2023/02/07 03:19:37;;;;;;;29.42;18.35;;;;;;;-3.71;100.00;102709.44;5074820;28;20190;-70
2023/02/07 03:22:09;;;;;;;30.10;18.25;;;;;;;-3.78;100.00;102713.72;5086717;28;20572;-69
2023/02/07 03:24:38;;;;;;;29.88;19.08;;;;;;;-3.76;100.00;102716.34;5102341;28;20205;-70
2023/02/07 03:27:07;;;;;;;30.85;17.85;;;;;;;-3.71;100.00;102707.69;5098458;28;20250;-69
2023/02/07 03:29:36;;;;;;;29.58;18.98;;;;;;;-3.67;100.00;102711.19;5081282;28;20218;-70
2023/02/07 03:32:05;;;;;;;24.33;16.73;;;;;;;-3.77;100.00;102702.38;5085254;28;20252;-70
2023/02/07 03:34:35;;;;;;;28.80;18.35;;;;;;;-3.82;100.00;102697.16;5091436;28;20198;-70
2023/02/07 03:37:07;;;;;;;28.30;18.15;;;;;;;-3.66;100.00;102703.34;5081264;28;20233;-70
2023/02/07 03:39:33;;;;;;;29.73;19.88;;;;;;;-3.58;100.00;102700.78;5082592;28;20209;-70
2023/02/07 03:42:02;;;;;;;26.63;19.50;;;;;;;-3.58;100.00;102703.41;5081214;28;20234;-70
2023/02/07 03:44:29;;;;;;;31.48;20.25;;;;;;;-3.54;100.00;102697.34;5081248;28;20677;-70
2023/02/07 03:46:56;;;;;;;26.67;18.73;;;;;;;-3.65;100.00;102699.00;5081004;28;20244;-70
2023/02/07 03:49:22;;;;;;;34.53;19.13;;;;;;;-3.67;100.00;102692.88;5081513;28;20306;-70
2023/02/07 03:51:51;;;;;;;31.42;17.38;;;;;;;-3.62;100.00;102701.63;5080986;28;20739;-71
2023/02/07 03:54:18;;;;;;;35.25;20.52;;;;;;;-3.63;100.00;102686.81;5081218;28;20214;-70
2023/02/07 03:56:47;;;;;;;33.05;18.63;;;;;;;-3.65;100.00;102683.31;5084536;28;20249;-70
2023/02/07 03:59:14;;;;;;;30.75;19.02;;;;;;;-3.64;100.00;102680.72;5100731;28;20378;-69
2023/02/07 04:01:41;;;;;;;28.10;19.23;;;;;;;-3.91;100.00;102673.53;5100888;28;20658;-69
2023/02/07 04:04:08;;;;;;;27.52;18.73;;;;;;;-3.99;100.00;102667.41;5094171;28;20229;-70
2023/02/07 04:06:35;;;;;;;29.50;19.15;;;;;;;-4.04;100.00;102664.75;5080806;28;20230;-70
2023/02/07 04:09:03;;;;;;;24.55;17.92;;;;;;;-4.02;100.00;102667.38;5081868;28;20214;-69
2023/02/07 04:11:30;;;;;;;32.05;19.25;;;;;;;-3.95;100.00;102670.91;5080535;28;20738;-69
2023/02/07 04:13:56;;;;;;;30.48;18.48;;;;;;;-3.83;100.00;102671.00;5080979;28;20345;-69
2023/02/07 04:16:23;;;;;;;26.33;18.08;;;;;;;-3.71;100.00;102673.69;5061111;28;20326;-70
2023/02/07 04:18:52;;;;;;;30.02;19.35;;;;;;;-3.87;100.00;102670.09;5061533;28;20191;-71
2023/02/07 04:21:19;;;;;;;31.25;18.23;;;;;;;-4.00;100.00;102674.34;5060902;28;20238;-70
2023/02/07 04:23:46;;;;;;;30.38;17.98;;;;;;;-3.99;100.00;102680.47;5099685;28;20205;-71
2023/02/07 04:26:14;;;;;;;31.27;20.80;;;;;;;-4.01;100.00;102684.78;5091955;28;20230;-71
2023/02/07 04:28:40;;;;;;;25.52;17.48;;;;;;;-3.99;100.00;102689.16;5080697;28;20222;-71
2023/02/07 04:31:07;;;;;;;26.52;17.67;;;;;;;-3.99;100.00;102696.16;5081074;28;20262;-70
2023/02/07 04:33:34;;;;;;;27.88;18.60;;;;;;;-4.02;100.00;102696.13;5081311;28;20221;-71
2023/02/07 04:36:02;;;;;;;28.58;17.75;;;;;;;-4.07;100.00;102687.34;5082598;28;20233;-71
2023/02/07 04:38:29;;;;;;;30.67;17.25;;;;;;;-4.00;100.00;102686.53;5101597;28;20251;-71
2023/02/07 04:40:59;;;;;;;25.48;18.17;;;;;;;-3.95;100.00;102691.81;5088539;28;20260;-71
2023/02/07 04:43:27;;;;;;;30.02;18.10;;;;;;;-4.10;100.00;102676.88;5089223;28;20272;-71
2023/02/07 04:45:54;;;;;;;25.63;17.45;;;;;;;-4.07;100.00;102677.78;5080577;28;20229;-71
2023/02/07 04:48:21;;;;;;;26.13;18.42;;;;;;;-4.18;100.00;102687.28;5094368;28;20584;-70
2023/02/07 04:50:47;;;;;;;28.98;20.45;;;;;;;-4.06;100.00;102684.75;5085686;28;20234;-70
2023/02/07 04:53:14;;;;;;;29.70;18.23;;;;;;;-4.04;100.00;102679.56;5080246;28;20221;-71
2023/02/07 04:55:41;;;;;;;27.80;17.00;;;;;;;-4.14;100.00;102675.09;5080169;28;20237;-71
2023/02/07 04:58:08;;;;;;;27.63;18.13;;;;;;;-4.12;100.00;102673.38;5080079;28;20209;-71
2023/02/07 05:00:36;;;;;;;28.20;17.67;;;;;;;-4.26;100.00;102668.91;5076539;28;20234;-72
2023/02/07 05:03:02;;;;;;;26.42;15.75;;;;;;;-4.26;100.00;102665.44;5074119;28;20220;-72
2023/02/07 05:05:29;;;;;;;26.98;17.25;;;;;;;-4.22;100.00;102673.31;5079273;28;20252;-72
2023/02/07 05:07:55;;;;;;;26.75;18.50;;;;;;;-4.27;100.00;102669.78;5080579;28;20451;-72
2023/02/07 05:10:22;;;;;;;29.20;17.13;;;;;;;-4.31;100.00;102680.19;5081964;28;20222;-72
2023/02/07 05:12:49;;;;;;;27.23;18.45;;;;;;;-4.42;100.00;102675.72;5096075;28;20191;-70
2023/02/07 05:15:16;;;;;;;29.48;19.35;;;;;;;-4.58;100.00;102676.44;5091363;28;20214;-71
2023/02/07 05:17:44;;;;;;;30.13;18.15;;;;;;;-4.63;100.00;102679.00;5083191;28;20199;-69
2023/02/07 05:20:13;;;;;;;29.45;18.27;;;;;;;-4.74;100.00;102672.78;5079589;28;20226;-70
2023/02/07 05:22:40;;;;;;;33.45;18.05;;;;;;;-4.71;100.00;102679.78;5078471;28;20201;-71
2023/02/07 05:25:09;;;;;;;25.55;15.95;;;;;;;-4.70;100.00;102669.34;5078440;28;20646;-71
2023/02/07 05:27:35;;;;;;;28.88;17.85;;;;;;;-4.73;100.00;102671.91;5076032;28;20379;-70
2023/02/07 05:30:02;;;;;;;32.72;19.15;;;;;;;-4.89;100.00;102663.06;5067365;28;20253;-71
2023/02/07 05:35:14;;;;;;;27.75;18.00;;;;;;;-4.82;100.00;102669.22;5086136;28;20212;-66
2023/02/07 05:37:40;;;;;;;33.20;18.00;;;;;;;-4.83;100.00;102664.84;5072688;28;20199;-66
2023/02/07 05:40:08;;;;;;;33.17;19.20;;;;;;;-4.88;100.00;102675.22;5084802;28;20210;-66
2023/02/07 05:42:36;;;;;;;30.27;19.95;;;;;;;-4.78;100.00;102677.06;5077369;28;20245;-67
2023/02/07 05:45:02;;;;;;;26.67;17.55;;;;;;;-4.79;100.00;102677.06;5097388;28;20227;-67
2023/02/07 05:47:29;;;;;;;29.85;18.63;;;;;;;-4.77;100.00;102680.59;5098880;28;20221;-67
2023/02/07 05:49:55;;;;;;;27.50;18.17;;;;;;;-4.68;100.00;102691.13;5103567;28;20233;-67
2023/02/07 05:52:23;;;;;;;28.42;19.02;;;;;;;-4.74;100.00;102689.31;5102186;28;20269;-66
2023/02/07 05:54:50;;;;;;;30.95;19.88;;;;;;;-4.77;100.00;102704.94;5103030;28;20205;-66
2023/02/07 05:57:17;;;;;;;25.45;15.88;;;;;;;-4.72;100.00;102694.56;5101701;28;20251;-66
2023/02/07 05:59:43;;;;;;;26.88;17.40;;;;;;;-4.68;100.00;102709.38;5101455;28;20201;-66
2023/02/07 06:02:16;;;;;;;32.50;20.23;;;;;;;-4.69;100.00;102694.56;5102035;28;20312;-67
2023/02/07 06:04:43;;;;;;;31.67;19.35;;;;;;;-4.68;100.00;102700.69;5098005;28;20214;-66
2023/02/07 06:07:09;;;;;;;27.02;18.48;;;;;;;-4.73;100.00;102703.25;5102102;28;20249;-67
2023/02/07 06:09:37;;;;;;;26.35;18.20;;;;;;;-4.78;100.00;102713.63;5102966;28;20222;-67
2023/02/07 06:12:04;;;;;;;25.02;16.45;;;;;;;-4.76;100.00;102709.28;5102512;28;20240;-67
2023/02/07 06:14:31;;;;;;;28.52;19.10;;;;;;;-4.75;100.00;102711.03;5100670;28;20712;-67
2023/02/07 06:16:58;;;;;;;31.98;19.42;;;;;;;-4.68;100.00;102714.59;5084757;28;20257;-67
2023/02/07 06:19:24;;;;;;;31.90;18.63;;;;;;;-4.77;100.00;102723.22;5100852;28;20190;-67
2023/02/07 06:21:51;;;;;;;31.15;17.70;;;;;;;-4.71;100.00;102709.34;5102178;28;20233;-67
2023/02/07 06:24:17;;;;;;;26.30;18.75;;;;;;;-4.58;100.00;102719.06;5102984;28;20213;-67
2023/02/07 06:26:45;;;;;;;31.88;20.10;;;;;;;-4.51;100.00;102712.19;5102709;28;20237;-67
2023/02/07 06:29:12;;;;;;;31.35;19.42;;;;;;;-4.60;100.00;102710.34;5101735;28;20286;-67
2023/02/07 06:31:39;;;;;;;30.52;18.23;;;;;;;-4.70;100.00;102716.34;5102728;28;20225;-67
2023/02/07 06:34:05;;;;;;;31.60;18.02;;;;;;;-4.63;100.00;102707.72;5102552;28;20679;-68
2023/02/07 06:36:32;;;;;;;27.90;16.85;;;;;;;-4.55;100.00;102713.91;5101869;28;20240;-66
2023/02/07 06:38:59;;;;;;;30.15;16.98;;;;;;;-4.48;100.00;102720.03;5101161;28;20610;-71
2023/02/07 06:41:26;;;;;;;29.58;18.02;;;;;;;-4.48;100.00;102722.66;5102023;28;20603;-71
2023/02/07 06:43:56;;;;;;;28.65;16.75;;;;;;;-4.56;100.00;102717.34;5101447;28;20233;-71
2023/02/07 06:46:23;;;;;;;25.95;17.52;;;;;;;-4.58;100.00;102716.47;5101897;28;20237;-71
2023/02/07 06:48:50;;;;;;;35.65;17.80;;;;;;;-4.44;100.00;102720.97;5102481;28;20204;-71
2023/02/07 06:51:16;;;;;;;26.02;16.73;;;;;;;-4.43;100.00;102728.78;5101684;28;20260;-71
2023/02/07 06:53:43;;;;;;;25.15;17.67;;;;;;;-4.39;100.00;102735.81;5100497;28;20229;-72
2023/02/07 06:56:10;;;;;;;24.80;16.15;;;;;;;-4.43;100.00;102738.38;5101046;28;20257;-71
2023/02/07 06:58:36;;;;;;;24.98;17.38;;;;;;;-4.40;100.00;102734.06;5100695;28;20243;-71
2023/02/07 07:01:05;;;;;;;26.80;16.48;;;;;;;-4.43;100.00;102738.38;5101549;28;20243;-71
2023/02/07 07:03:31;;;;;;;25.27;16.98;;;;;;;-4.42;100.00;102746.22;5102130;28;20270;-72
2023/02/07 07:05:58;;;;;;;29.58;16.55;;;;;;;-4.28;100.00;102742.91;5102041;28;20229;-72
2023/02/07 07:08:25;;;;;;;23.45;16.33;;;;;;;-4.30;100.00;102744.63;5101740;28;20224;-72
2023/02/07 07:10:52;;;;;;;23.67;16.52;;;;;;;-4.39;100.00;102734.94;5101832;28;20237;-72
2023/02/07 07:13:19;;;;;;;28.00;16.92;;;;;;;-4.45;100.00;102738.34;5102251;28;20233;-71
2023/02/07 07:15:46;;;;;;;29.52;17.80;;;;;;;-4.33;100.00;102739.34;5100739;28;20240;-72
2023/02/07 07:18:14;;;;;;;26.40;16.65;;;;;;;-4.34;100.00;102743.69;5101996;28;20210;-72
2023/02/07 07:20:41;;;;;;;29.92;19.20;;;;;;;-4.23;100.00;102747.28;5101635;28;20290;-72
2023/02/07 07:23:07;;;;;;;27.38;17.00;;;;;;;-4.15;100.00;102749.97;5101358;28;20221;-72
2023/02/07 07:25:34;;;;;;;23.08;16.70;;;;;;;-4.17;100.00;102744.75;5101677;28;20234;-72
2023/02/07 07:28:00;;;;;;;32.97;17.80;;;;;;;-4.10;100.00;102747.41;5101592;28;20205;-73
2023/02/07 07:30:27;;;;;;;25.15;17.05;;;;;;;-3.89;100.00;102750.25;5100279;28;20233;-73
2023/02/07 07:32:54;;;;;;;28.90;17.00;;;;;;;-3.96;100.00;102751.00;5101658;28;20617;-73
2023/02/07 07:35:22;;;;;;;26.85;17.70;;;;;;;-3.77;100.00;102754.66;5100870;28;20209;-74
2023/02/07 07:37:48;;;;;;;24.77;17.40;;;;;;;-3.78;100.00;102750.31;5101631;28;20229;-73
2023/02/07 07:40:15;;;;;;;25.75;17.75;;;;;;;-3.65;100.00;102751.28;5101507;28;20194;-72
2023/02/07 07:42:42;;;;;;;25.92;16.85;;;;;;;-3.62;100.00;102751.31;5101254;28;20238;-74
2023/02/07 07:45:10;;;;;;;31.10;20.13;;;;;;;-3.53;100.00;102753.13;5099931;28;20237;-73
2023/02/07 07:47:36;;;;;;;26.67;17.33;;;;;;;-3.40;100.00;102757.59;5102171;28;20800;-73
2023/02/07 07:50:03;;;;;;;25.52;17.70;;;;;;;-3.33;100.00;102755.84;5101584;28;20685;-73
2023/02/07 07:52:31;;;;;;;40.30;21.33;;;;;;;-3.29;100.00;102749.81;5100327;28;20233;-73
2023/02/07 07:54:58;;;;;;;30.67;17.98;;;;;;;-3.15;100.00;102761.22;5101239;28;20224;-72
2023/02/07 07:57:26;;;;;;;30.70;19.90;;;;;;;-2.93;100.00;102753.50;5100077;28;20240;-72
2023/02/07 07:59:53;;;;;;;30.55;20.63;;;;;;;-1.78;100.00;102755.53;5100552;28;20252;-73
2023/02/07 08:02:20;;;;;;;33.50;20.20;;;;;;;-1.10;100.00;102758.06;5101193;28;20229;-73
2023/02/07 08:04:47;;;;;;;35.97;22.17;;;;;;;0.91;100.00;102755.84;5100758;28;20761;-73
2023/02/07 08:07:14;;;;;;;36.40;23.50;;;;;;;1.31;100.00;102753.63;5100105;28;20475;-73
2023/02/07 08:09:42;;;;;;;33.73;22.20;;;;;;;2.16;100.00;102752.41;5100835;28;20502;-72
2023/02/07 08:12:08;;;;;;;32.07;23.70;;;;;;;2.85;100.00;102763.56;5100346;28;20471;-73
2023/02/07 08:14:35;;;;;;;29.07;20.90;;;;;;;2.16;100.00;102749.78;5100103;28;20505;-73
2023/02/07 08:17:02;;;;;;;26.37;16.50;;;;;;;2.14;100.00;102751.56;5100013;28;21058;-74
2023/02/07 08:19:28;;;;;;;27.67;17.93;;;;;;;2.77;100.00;102744.31;5080172;28;20428;-73
2023/02/07 08:21:55;;;;;;;19.40;16.23;;;;;;;2.43;100.00;102750.19;5093356;28;21300;-73
2023/02/07 08:24:21;;;;;;;16.40;13.27;;;;;;;2.99;100.00;102743.00;5100101;28;20452;-74
2023/02/07 08:26:50;;;;;;;15.40;12.77;;;;;;;3.54;100.00;102742.75;5100700;28;20986;-74
2023/02/07 08:29:16;;;;;;;15.23;11.70;;;;;;;3.14;100.00;102749.78;5100250;28;20459;-73
2023/02/07 08:31:43;;;;;;;12.37;10.63;;;;;;;3.23;96.96;102750.47;5101413;28;20479;-73
2023/02/07 08:34:11;;;;;;;12.97;11.23;;;;;;;3.17;100.00;102754.13;5101204;28;20471;-73
2023/02/07 08:36:38;;;;;;;12.43;11.13;;;;;;;2.61;100.00;102755.16;5101078;28;20488;-73
2023/02/07 08:39:05;;;;;;;12.23;10.27;;;;;;;3.43;100.00;102750.06;5101521;28;20482;-73
2023/02/07 08:41:31;;;;;;;14.10;11.40;;;;;;;3.48;99.51;102749.06;5100973;28;20512;-73
2023/02/07 08:43:59;;;;;;;15.30;11.20;;;;;;;4.03;95.00;102746.94;5100381;28;20486;-72
2023/02/07 08:46:26;;;;;;;12.20;10.90;;;;;;;4.01;95.71;102748.75;5100683;28;20480;-73
2023/02/07 08:48:52;;;;;;;13.00;9.57;;;;;;;3.39;97.59;102749.25;5101258;28;20434;-73
2023/02/07 08:51:20;;;;;;;12.00;10.70;;;;;;;3.87;97.55;102750.84;5101088;28;20892;-73
2023/02/07 08:53:47;;;;;;;17.00;12.00;;;;;;;4.47;91.29;102746.72;5101579;28;20451;-73
2023/02/07 08:56:13;;;;;;;11.90;10.80;;;;;;;3.94;95.57;102749.78;5100798;28;20493;-74
2023/02/07 08:58:40;;;;;;;14.50;12.33;;;;;;;4.76;90.52;102748.63;5100379;28;20765;-73
2023/02/07 09:01:10;;;;;;;13.40;11.40;;;;;;;4.67;86.72;102740.88;5100411;28;20490;-73
2023/02/07 09:03:36;;;;;;;13.00;11.80;;;;;;;3.35;93.44;102740.53;5101351;28;20651;-73
2023/02/07 09:06:03;;;;;;;13.43;11.80;;;;;;;4.95;86.84;102727.78;5100675;28;20470;-73
2023/02/07 09:08:30;;;;;;;12.60;11.30;;;;;;;4.61;88.25;102741.06;5101414;28;20431;-73
2023/02/07 09:10:57;;;;;;;13.00;11.60;;;;;;;4.96;89.09;102721.53;5100669;28;20526;-73
2023/02/07 09:13:23;;;;;;;12.10;10.80;;;;;;;4.78;79.88;102725.59;5101245;28;20427;-73
2023/02/07 09:15:53;;;;;;;13.10;11.57;;;;;;;4.18;86.32;102732.44;5080220;28;20464;-73
2023/02/07 09:18:22;;;;;;;12.80;10.80;;;;;;;4.64;85.65;102718.00;5090415;28;20442;-72
2023/02/07 09:20:48;;;;;;;11.97;10.30;;;;;;;4.61;83.11;102717.22;5102474;28;20925;-73
2023/02/07 09:23:18;;;;;;;14.13;11.37;;;;;;;4.83;82.80;102713.06;5105069;28;20431;-73
2023/02/07 09:25:45;;;;;;;12.00;10.73;;;;;;;4.78;81.15;102706.16;5104112;28;20481;-73
2023/02/07 09:28:12;;;;;;;12.17;10.67;;;;;;;5.98;79.97;102708.75;5104549;28;20438;-72
2023/02/07 09:30:40;;;;;;;13.53;11.63;;;;;;;6.16;73.23;102703.72;5104090;28;20476;-73
2023/02/07 09:33:07;;;;;;;13.23;11.80;;;;;;;5.85;78.22;102704.72;5104755;28;20473;-73
2023/02/07 09:35:38;;;;;;;13.87;12.30;;;;;;;4.26;85.93;102706.63;5103993;28;20463;-72
2023/02/07 09:38:04;;;;;;;12.40;11.10;;;;;;;5.43;81.97;102708.69;5105158;28;20428;-73
2023/02/07 09:40:32;;;;;;;13.17;11.83;;;;;;;4.86;84.86;102717.41;5104139;28;20468;-72
2023/02/07 09:43:03;;;;;;;15.40;13.17;;;;;;;5.17;84.29;102717.41;5104352;28;20502;-72
2023/02/07 09:45:32;;;;;;;14.37;12.10;;;;;;;4.24;83.28;102724.34;5103370;28;20494;-72
2023/02/07 09:48:03;;;;;;;14.47;12.97;;;;;;;3.35;93.11;102719.38;5104915;28;20501;-71
2023/02/07 09:50:31;;;;;;;13.77;12.37;;;;;;;3.43;94.58;102724.47;5104053;28;20498;-71
2023/02/07 09:53:02;;;;;;;16.17;14.27;;;;;;;4.04;91.85;102729.25;5104011;28;20431;-73
2023/02/07 09:55:32;;;;;;;16.70;13.27;;;;;;;4.29;88.75;102726.88;5103898;28;20493;-73
2023/02/07 09:58:02;;;;;;;15.87;12.37;;;;;;;3.67;95.36;102727.50;5103622;28;20439;-72
2023/02/07 10:00:31;;;;;;;13.20;11.50;;;;;;;4.07;93.95;102722.13;5103305;28;20486;-72
2023/02/07 10:03:01;;;;;;;14.47;12.43;;;;;;;5.85;88.90;102726.84;5103950;28;20447;-73
2023/02/07 10:05:30;;;;;;;13.00;11.60;;;;;;;5.86;81.05;102727.69;5103606;28;20556;-73
2023/02/07 10:07:58;;;;;;;14.70;11.90;;;;;;;6.27;79.62;102730.81;5104441;28;20479;-73
2023/02/07 10:10:30;;;;;;;12.67;11.37;;;;;;;7.92;70.04;102732.72;5104023;28;20470;-73
2023/02/07 10:13:26;;;;;;;13.37;10.20;;;;;;;7.99;70.58;102741.31;5084200;28;20467;-73
2023/02/07 10:16:01;;;;;;;11.83;10.63;;;;;;;8.43;59.66;102735.97;5074288;28;20471;-73
2023/02/07 10:18:42;;;;;;;12.17;10.97;;;;;;;8.30;55.82;102730.25;5104383;28;20441;-74
2023/02/07 10:21:15;;;;;;;13.47;10.87;;;;;;;7.12;66.69;102728.69;5103500;28;20500;-73
2023/02/07 10:23:56;;;;;;;11.33;10.13;;;;;;;7.18;63.39;102732.91;5103495;28;20449;-72
2023/02/07 10:26:27;;;;;;;12.50;10.53;;;;;;;8.46;63.90;102741.16;5102884;28;20842;-73
2023/02/07 10:29:13;;;;;;;12.27;10.97;;;;;;;6.41;65.48;102728.56;5103010;28;20448;-73
2023/02/07 10:31:47;;;;;;;11.73;10.50;;;;;;;7.59;66.45;102725.16;5103124;28;20504;-73
2023/02/07 10:34:15;;;;;;;12.40;10.40;;;;;;;8.08;61.51;102724.97;5103096;28;20480;-73
2023/02/07 10:36:45;;;;;;;11.60;10.40;;;;;;;10.88;51.16;102710.91;5103106;28;20485;-73
2023/02/07 10:39:18;;;;;;;12.43;11.13;;;;;;;11.34;46.96;102729.84;5103988;28;20450;-73
2023/02/07 10:41:45;;;;;;;11.47;10.33;;;;;;;10.02;46.19;102726.88;5103103;28;20483;-73
2023/02/07 10:44:14;;;;;;;13.80;10.07;;;;;;;7.69;58.46;102734.50;5102545;28;20522;-73
2023/02/07 10:46:43;;;;;;;12.00;10.80;;;;;;;6.95;58.50;102728.44;5103063;28;21143;-73
2023/02/07 10:49:17;;;;;;;13.97;10.80;;;;;;;8.50;55.21;102726.75;5103608;28;20448;-73
2023/02/07 10:51:44;;;;;;;11.00;9.37;;;;;;;9.43;53.92;102726.16;5102933;28;20542;-73
2023/02/07 10:54:15;;;;;;;13.90;10.23;;;;;;;7.90;55.24;102731.91;5102853;28;20519;-73
2023/02/07 10:56:45;;;;;;;11.50;10.40;;;;;;;8.11;58.27;102725.69;5102639;28;20493;-73
2023/02/07 10:59:35;;;;;;;10.20;9.13;;;;;;;7.98;55.08;102735.13;5102103;28;20517;-73
2023/02/07 11:02:02;;;;;;;11.20;10.00;;;;;;;7.04;58.61;102721.94;5102630;28;20479;-72
2023/02/07 11:04:36;;;;;;;10.17;9.10;;;;;;;7.02;60.45;102715.81;5102656;28;20446;-73
2023/02/07 11:07:04;;;;;;;11.20;10.10;;;;;;;7.07;63.29;102717.34;5102558;28;20474;-73
2023/02/07 11:09:36;;;;;;;11.50;9.97;;;;;;;6.15;68.59;102721.47;5103468;28;20430;-73
2023/02/07 11:12:13;;;;;;;11.90;10.70;;;;;;;7.51;62.19;102714.78;5102290;28;20858;-72
2023/02/07 11:14:40;;;;;;;14.90;9.40;;;;;;;7.13;63.75;102714.47;5101800;28;21001;-73